Weather at Wpxi-Tv Television Hill Heliport

Public forecast

Using degrees Fahrenheit for public forecast. Weather courtesy of forecast.io.

Closest aviation weather report (METAR) to Wpxi-Tv Television Hill Heliport

Closest report is Allegheny County Airport, 7.4 nm (13.6 km) SSE. Retrieved 2022/01/17 04:14 UTC (43 minutes ago):

KAGC 170414Z 36008G18KT 9SM BKN011 OVC019 M05/M07 A2935 RMK AO2 UPE08 P0001 T10501067

Closest aviation forecast (TAF) to Wpxi-Tv Television Hill Heliport

Closest forecast is Allegheny County Airport, 7.4 nm (13.6 km) SSE. Retrieved 2022-01-17 00:12 UTC (5 hours ago):

TAF COR KAGC 170010Z 1700/1724 07007KT 1/2SM SN FZFG VV006 FM170100 06009G17KT 1 1/2SM -SN OVC015 FM170600 34007KT 1SM -SN OVC007 FM170800 33008G19KT 2SM -SN OVC007 FM171200 29012G26KT 1SM -SN OVC010 FM171700 28015G29KT 2SM -SHSN OVC015